トロムソ の空港の天気 - METARとTAF

トロムソ空港 ( ENTC / TOS ) - ノルウェー トロムス県トロムソ
飛行場実況気象(Metar)
観測時間02/26 04:20 CET (02/26 03:20 UTC)
風向・風速東 2m/s
視程10km以上
天気現象
なし
気温-14℃
湿度85%
気圧1047hPa
METARENTC 260320Z 10003KT CAVOK M14/M16 Q1047 RMK WIND 2600FT 13015KT
過去の天気等 Google飛行場航空写真 Wunderground天気予報

過去48時間のMETAR

飛行場予報(TAF)
発表時間: -
TAF ENTC 2600/2624 VRB08KT CAVOK